sensor_id;sensor_type;location;lat;lon;timestamp;P1;durP1;ratioP1;P2;durP2;ratioP2
68300;SDS011;55146;47.468;18.806;2023-06-10T00:01:58;11.70;;;7.20;;
68300;SDS011;55146;47.468;18.806;2023-06-10T00:04:24;11.02;;;7.00;;
68300;SDS011;55146;47.468;18.806;2023-06-10T00:06:53;14.27;;;6.97;;
68300;SDS011;55146;47.468;18.806;2023-06-10T00:09:18;11.50;;;7.40;;
68300;SDS011;55146;47.468;18.806;2023-06-10T00:11:46;11.27;;;7.40;;
68300;SDS011;55146;47.468;18.806;2023-06-10T00:14:12;10.75;;;6.62;;
68300;SDS011;55146;47.468;18.806;2023-06-10T00:16:38;9.43;;;6.70;;
68300;SDS011;55146;47.468;18.806;2023-06-10T00:19:03;11.73;;;7.25;;
68300;SDS011;55146;47.468;18.806;2023-06-10T00:21:33;11.77;;;6.53;;
68300;SDS011;55146;47.468;18.806;2023-06-10T00:24:05;10.93;;;7.25;;
68300;SDS011;55146;47.468;18.806;2023-06-10T00:26:39;11.07;;;7.28;;
68300;SDS011;55146;47.468;18.806;2023-06-10T00:29:06;11.60;;;7.15;;
68300;SDS011;55146;47.468;18.806;2023-06-10T00:31:33;13.02;;;6.45;;
68300;SDS011;55146;47.468;18.806;2023-06-10T00:33:59;10.07;;;6.43;;
68300;SDS011;55146;47.468;18.806;2023-06-10T00:36:24;14.07;;;7.23;;
68300;SDS011;55146;47.468;18.806;2023-06-10T00:38:49;9.75;;;6.12;;
68300;SDS011;55146;47.468;18.806;2023-06-10T00:41:15;10.87;;;6.17;;
68300;SDS011;55146;47.468;18.806;2023-06-10T00:43:40;12.90;;;6.50;;
68300;SDS011;55146;47.468;18.806;2023-06-10T00:46:05;12.17;;;7.07;;
68300;SDS011;55146;47.468;18.806;2023-06-10T00:48:31;12.23;;;6.67;;
68300;SDS011;55146;47.468;18.806;2023-06-10T00:50:57;9.95;;;6.60;;
68300;SDS011;55146;47.468;18.806;2023-06-10T00:53:25;10.10;;;6.60;;
68300;SDS011;55146;47.468;18.806;2023-06-10T00:55:51;10.68;;;6.20;;
68300;SDS011;55146;47.468;18.806;2023-06-10T00:58:16;13.83;;;6.43;;
68300;SDS011;55146;47.468;18.806;2023-06-10T01:00:42;12.32;;;6.32;;
68300;SDS011;55146;47.468;18.806;2023-06-10T01:03:10;8.30;;;5.43;;
68300;SDS011;55146;47.468;18.806;2023-06-10T01:05:37;10.65;;;6.50;;
68300;SDS011;55146;47.468;18.806;2023-06-10T01:08:09;14.65;;;6.75;;
68300;SDS011;55146;47.468;18.806;2023-06-10T01:10:45;17.73;;;6.22;;
68300;SDS011;55146;47.468;18.806;2023-06-10T01:13:18;10.98;;;5.72;;
68300;SDS011;55146;47.468;18.806;2023-06-10T01:15:45;9.50;;;5.97;;
68300;SDS011;55146;47.468;18.806;2023-06-10T01:18:10;9.68;;;5.40;;
68300;SDS011;55146;47.468;18.806;2023-06-10T01:20:40;13.40;;;6.20;;
68300;SDS011;55146;47.468;18.806;2023-06-10T01:23:07;10.43;;;6.05;;
68300;SDS011;55146;47.468;18.806;2023-06-10T01:25:34;11.70;;;6.25;;
68300;SDS011;55146;47.468;18.806;2023-06-10T01:31:12;9.02;;;5.43;;
68300;SDS011;55146;47.468;18.806;2023-06-10T01:33:42;11.80;;;6.00;;
68300;SDS011;55146;47.468;18.806;2023-06-10T01:36:10;9.23;;;5.87;;
68300;SDS011;55146;47.468;18.806;2023-06-10T01:38:39;11.30;;;6.30;;
68300;SDS011;55146;47.468;18.806;2023-06-10T01:41:07;9.52;;;5.22;;
68300;SDS011;55146;47.468;18.806;2023-06-10T01:43:34;13.30;;;5.87;;
68300;SDS011;55146;47.468;18.806;2023-06-10T01:46:00;9.03;;;5.27;;
68300;SDS011;55146;47.468;18.806;2023-06-10T01:48:26;12.32;;;6.00;;
68300;SDS011;55146;47.468;18.806;2023-06-10T01:50:51;16.37;;;6.27;;
68300;SDS011;55146;47.468;18.806;2023-06-10T01:53:17;10.48;;;6.15;;
68300;SDS011;55146;47.468;18.806;2023-06-10T01:55:42;8.73;;;5.33;;
68300;SDS011;55146;47.468;18.806;2023-06-10T01:58:07;9.17;;;6.47;;
68300;SDS011;55146;47.468;18.806;2023-06-10T02:00:33;10.57;;;6.27;;
68300;SDS011;55146;47.468;18.806;2023-06-10T02:02:58;12.63;;;6.17;;
68300;SDS011;55146;47.468;18.806;2023-06-10T02:05:24;12.90;;;5.90;;
68300;SDS011;55146;47.468;18.806;2023-06-10T02:07:49;8.93;;;5.53;;
68300;SDS011;55146;47.468;18.806;2023-06-10T02:10:15;9.73;;;6.30;;
68300;SDS011;55146;47.468;18.806;2023-06-10T02:12:40;12.70;;;6.77;;
68300;SDS011;55146;47.468;18.806;2023-06-10T02:15:05;11.10;;;6.33;;
68300;SDS011;55146;47.468;18.806;2023-06-10T02:17:31;11.32;;;5.47;;
68300;SDS011;55146;47.468;18.806;2023-06-10T02:19:57;10.27;;;6.53;;
68300;SDS011;55146;47.468;18.806;2023-06-10T02:22:24;10.45;;;6.20;;
68300;SDS011;55146;47.468;18.806;2023-06-10T02:24:50;9.25;;;5.45;;
68300;SDS011;55146;47.468;18.806;2023-06-10T02:27:16;11.27;;;5.63;;
68300;SDS011;55146;47.468;18.806;2023-06-10T02:29:49;8.43;;;5.28;;
68300;SDS011;55146;47.468;18.806;2023-06-10T02:32:14;9.77;;;5.90;;
68300;SDS011;55146;47.468;18.806;2023-06-10T02:34:40;11.13;;;6.13;;
68300;SDS011;55146;47.468;18.806;2023-06-10T02:37:07;11.15;;;6.25;;
68300;SDS011;55146;47.468;18.806;2023-06-10T02:39:33;9.87;;;6.50;;
68300;SDS011;55146;47.468;18.806;2023-06-10T02:41:58;11.70;;;7.15;;
68300;SDS011;55146;47.468;18.806;2023-06-10T02:44:24;13.70;;;7.50;;
68300;SDS011;55146;47.468;18.806;2023-06-10T02:46:49;11.30;;;6.30;;
68300;SDS011;55146;47.468;18.806;2023-06-10T02:49:15;10.80;;;6.45;;
68300;SDS011;55146;47.468;18.806;2023-06-10T02:51:41;13.67;;;5.87;;
68300;SDS011;55146;47.468;18.806;2023-06-10T02:54:06;9.70;;;5.80;;
68300;SDS011;55146;47.468;18.806;2023-06-10T02:56:31;12.13;;;6.40;;
68300;SDS011;55146;47.468;18.806;2023-06-10T02:58:58;10.67;;;5.70;;
68300;SDS011;55146;47.468;18.806;2023-06-10T03:01:23;10.05;;;6.12;;
68300;SDS011;55146;47.468;18.806;2023-06-10T03:03:49;10.47;;;5.70;;
68300;SDS011;55146;47.468;18.806;2023-06-10T03:06:15;11.00;;;6.10;;
68300;SDS011;55146;47.468;18.806;2023-06-10T03:08:41;9.85;;;5.70;;
68300;SDS011;55146;47.468;18.806;2023-06-10T03:11:07;9.80;;;6.00;;
68300;SDS011;55146;47.468;18.806;2023-06-10T03:13:32;9.23;;;5.77;;
68300;SDS011;55146;47.468;18.806;2023-06-10T03:15:57;12.77;;;5.80;;
68300;SDS011;55146;47.468;18.806;2023-06-10T03:18:26;8.98;;;5.87;;
68300;SDS011;55146;47.468;18.806;2023-06-10T03:20:53;7.47;;;5.30;;
68300;SDS011;55146;47.468;18.806;2023-06-10T03:23:18;10.55;;;5.28;;
68300;SDS011;55146;47.468;18.806;2023-06-10T03:25:44;8.83;;;5.43;;
68300;SDS011;55146;47.468;18.806;2023-06-10T03:28:10;8.75;;;5.43;;
68300;SDS011;55146;47.468;18.806;2023-06-10T03:30:35;10.63;;;5.23;;
68300;SDS011;55146;47.468;18.806;2023-06-10T03:33:01;9.27;;;5.57;;
68300;SDS011;55146;47.468;18.806;2023-06-10T03:35:26;9.20;;;5.17;;
68300;SDS011;55146;47.468;18.806;2023-06-10T03:37:52;9.87;;;5.67;;
68300;SDS011;55146;47.468;18.806;2023-06-10T03:40:17;9.73;;;5.47;;
68300;SDS011;55146;47.468;18.806;2023-06-10T03:42:43;16.10;;;6.15;;
68300;SDS011;55146;47.468;18.806;2023-06-10T03:45:09;9.37;;;5.57;;
68300;SDS011;55146;47.468;18.806;2023-06-10T03:47:35;9.88;;;5.95;;
68300;SDS011;55146;47.468;18.806;2023-06-10T03:50:02;8.73;;;5.95;;
68300;SDS011;55146;47.468;18.806;2023-06-10T03:52:30;9.90;;;5.70;;
68300;SDS011;55146;47.468;18.806;2023-06-10T03:54:56;9.77;;;6.00;;
68300;SDS011;55146;47.468;18.806;2023-06-10T03:57:21;9.07;;;5.50;;
68300;SDS011;55146;47.468;18.806;2023-06-10T03:59:47;10.02;;;6.53;;
68300;SDS011;55146;47.468;18.806;2023-06-10T04:02:12;9.73;;;6.27;;
68300;SDS011;55146;47.468;18.806;2023-06-10T04:04:37;9.97;;;6.70;;
68300;SDS011;55146;47.468;18.806;2023-06-10T04:07:04;9.97;;;7.03;;
68300;SDS011;55146;47.468;18.806;2023-06-10T04:09:30;9.38;;;6.35;;
68300;SDS011;55146;47.468;18.806;2023-06-10T04:11:55;9.60;;;7.10;;
68300;SDS011;55146;47.468;18.806;2023-06-10T04:14:21;12.17;;;7.33;;
68300;SDS011;55146;47.468;18.806;2023-06-10T04:16:46;11.37;;;6.77;;
68300;SDS011;55146;47.468;18.806;2023-06-10T04:19:11;11.97;;;8.17;;
68300;SDS011;55146;47.468;18.806;2023-06-10T04:21:37;10.97;;;7.97;;
68300;SDS011;55146;47.468;18.806;2023-06-10T04:24:02;10.90;;;7.27;;
68300;SDS011;55146;47.468;18.806;2023-06-10T04:26:28;12.43;;;7.70;;
68300;SDS011;55146;47.468;18.806;2023-06-10T04:28:53;14.13;;;8.50;;
68300;SDS011;55146;47.468;18.806;2023-06-10T04:31:18;14.23;;;8.13;;
68300;SDS011;55146;47.468;18.806;2023-06-10T04:33:44;13.60;;;7.85;;
68300;SDS011;55146;47.468;18.806;2023-06-10T04:36:10;11.60;;;8.10;;
68300;SDS011;55146;47.468;18.806;2023-06-10T04:38:35;14.77;;;8.57;;
68300;SDS011;55146;47.468;18.806;2023-06-10T04:41:01;13.55;;;7.55;;
68300;SDS011;55146;47.468;18.806;2023-06-10T04:43:27;12.30;;;8.67;;
68300;SDS011;55146;47.468;18.806;2023-06-10T04:45:53;13.73;;;8.98;;
68300;SDS011;55146;47.468;18.806;2023-06-10T04:48:19;12.57;;;8.55;;
68300;SDS011;55146;47.468;18.806;2023-06-10T04:50:44;13.10;;;9.10;;
68300;SDS011;55146;47.468;18.806;2023-06-10T04:53:10;12.83;;;9.20;;
68300;SDS011;55146;47.468;18.806;2023-06-10T04:55:35;11.60;;;8.82;;
68300;SDS011;55146;47.468;18.806;2023-06-10T04:58:01;12.43;;;8.53;;
68300;SDS011;55146;47.468;18.806;2023-06-10T05:00:26;12.57;;;8.60;;
68300;SDS011;55146;47.468;18.806;2023-06-10T05:02:52;13.98;;;9.45;;
68300;SDS011;55146;47.468;18.806;2023-06-10T05:05:17;11.60;;;7.90;;
68300;SDS011;55146;47.468;18.806;2023-06-10T05:07:43;12.90;;;8.57;;
68300;SDS011;55146;47.468;18.806;2023-06-10T05:10:08;14.65;;;10.00;;
68300;SDS011;55146;47.468;18.806;2023-06-10T05:12:34;13.00;;;8.70;;
68300;SDS011;55146;47.468;18.806;2023-06-10T05:15:00;13.55;;;9.35;;
68300;SDS011;55146;47.468;18.806;2023-06-10T05:17:25;13.70;;;9.23;;
68300;SDS011;55146;47.468;18.806;2023-06-10T05:19:51;14.37;;;8.77;;
68300;SDS011;55146;47.468;18.806;2023-06-10T05:22:16;17.33;;;11.13;;
68300;SDS011;55146;47.468;18.806;2023-06-10T05:24:43;12.52;;;8.13;;
68300;SDS011;55146;47.468;18.806;2023-06-10T05:27:11;11.50;;;8.43;;
68300;SDS011;55146;47.468;18.806;2023-06-10T05:29:37;12.70;;;8.70;;
68300;SDS011;55146;47.468;18.806;2023-06-10T05:32:02;12.45;;;8.40;;
68300;SDS011;55146;47.468;18.806;2023-06-10T05:34:31;11.90;;;7.47;;
68300;SDS011;55146;47.468;18.806;2023-06-10T05:36:56;11.95;;;8.10;;
68300;SDS011;55146;47.468;18.806;2023-06-10T05:39:22;11.07;;;8.10;;
68300;SDS011;55146;47.468;18.806;2023-06-10T05:41:47;12.02;;;7.85;;
68300;SDS011;55146;47.468;18.806;2023-06-10T05:44:13;10.80;;;8.07;;
68300;SDS011;55146;47.468;18.806;2023-06-10T05:46:38;13.57;;;8.83;;
68300;SDS011;55146;47.468;18.806;2023-06-10T05:49:03;10.53;;;7.80;;
68300;SDS011;55146;47.468;18.806;2023-06-10T05:51:29;11.03;;;7.87;;
68300;SDS011;55146;47.468;18.806;2023-06-10T05:53:54;10.20;;;7.55;;
68300;SDS011;55146;47.468;18.806;2023-06-10T05:56:20;13.43;;;8.53;;
68300;SDS011;55146;47.468;18.806;2023-06-10T05:58:47;10.20;;;7.60;;
68300;SDS011;55146;47.468;18.806;2023-06-10T06:01:13;10.93;;;7.20;;
68300;SDS011;55146;47.468;18.806;2023-06-10T06:03:38;11.47;;;7.30;;
68300;SDS011;55146;47.468;18.806;2023-06-10T06:06:03;11.17;;;7.23;;
68300;SDS011;55146;47.468;18.806;2023-06-10T06:08:29;9.70;;;7.07;;
68300;SDS011;55146;47.468;18.806;2023-06-10T06:10:54;9.63;;;7.33;;
68300;SDS011;55146;47.468;18.806;2023-06-10T06:13:20;10.30;;;6.80;;
68300;SDS011;55146;47.468;18.806;2023-06-10T06:15:45;9.80;;;6.80;;
68300;SDS011;55146;47.468;18.806;2023-06-10T06:18:10;11.33;;;6.80;;
68300;SDS011;55146;47.468;18.806;2023-06-10T06:20:36;9.40;;;7.07;;
68300;SDS011;55146;47.468;18.806;2023-06-10T06:23:01;10.23;;;6.97;;
68300;SDS011;55146;47.468;18.806;2023-06-10T06:25:26;11.73;;;7.03;;
68300;SDS011;55146;47.468;18.806;2023-06-10T06:27:52;12.60;;;7.67;;
68300;SDS011;55146;47.468;18.806;2023-06-10T06:30:17;10.43;;;7.78;;
68300;SDS011;55146;47.468;18.806;2023-06-10T06:32:43;11.53;;;8.03;;
68300;SDS011;55146;47.468;18.806;2023-06-10T06:35:08;12.80;;;6.83;;
68300;SDS011;55146;47.468;18.806;2023-06-10T06:37:34;12.70;;;6.70;;
68300;SDS011;55146;47.468;18.806;2023-06-10T06:40:00;9.95;;;7.62;;
68300;SDS011;55146;47.468;18.806;2023-06-10T06:42:25;10.90;;;6.50;;
68300;SDS011;55146;47.468;18.806;2023-06-10T06:44:50;8.90;;;6.57;;
68300;SDS011;55146;47.468;18.806;2023-06-10T06:47:16;9.43;;;6.00;;
68300;SDS011;55146;47.468;18.806;2023-06-10T06:49:48;8.55;;;5.95;;
68300;SDS011;55146;47.468;18.806;2023-06-10T06:52:14;9.17;;;6.07;;
68300;SDS011;55146;47.468;18.806;2023-06-10T06:54:40;9.07;;;6.60;;
68300;SDS011;55146;47.468;18.806;2023-06-10T06:57:06;7.05;;;5.18;;
68300;SDS011;55146;47.468;18.806;2023-06-10T06:59:32;7.57;;;4.77;;
68300;SDS011;55146;47.468;18.806;2023-06-10T07:01:58;8.98;;;4.65;;
68300;SDS011;55146;47.468;18.806;2023-06-10T07:04:23;6.50;;;4.65;;
68300;SDS011;55146;47.468;18.806;2023-06-10T07:06:49;7.87;;;4.60;;
68300;SDS011;55146;47.468;18.806;2023-06-10T07:09:14;5.90;;;3.90;;
68300;SDS011;55146;47.468;18.806;2023-06-10T07:11:40;7.57;;;4.40;;
68300;SDS011;55146;47.468;18.806;2023-06-10T07:14:06;6.30;;;3.85;;
68300;SDS011;55146;47.468;18.806;2023-06-10T07:16:31;5.60;;;3.57;;
68300;SDS011;55146;47.468;18.806;2023-06-10T07:18:57;5.47;;;4.30;;
68300;SDS011;55146;47.468;18.806;2023-06-10T07:21:22;8.93;;;3.83;;
68300;SDS011;55146;47.468;18.806;2023-06-10T07:23:48;5.77;;;3.77;;
68300;SDS011;55146;47.468;18.806;2023-06-10T07:26:14;7.12;;;3.75;;
68300;SDS011;55146;47.468;18.806;2023-06-10T07:28:40;5.70;;;3.30;;
68300;SDS011;55146;47.468;18.806;2023-06-10T07:31:06;5.63;;;4.00;;
68300;SDS011;55146;47.468;18.806;2023-06-10T07:33:32;6.10;;;3.93;;
68300;SDS011;55146;47.468;18.806;2023-06-10T07:35:57;5.90;;;4.07;;
68300;SDS011;55146;47.468;18.806;2023-06-10T07:38:24;6.77;;;4.80;;
68300;SDS011;55146;47.468;18.806;2023-06-10T07:40:50;5.85;;;4.07;;
68300;SDS011;55146;47.468;18.806;2023-06-10T07:43:15;6.10;;;3.70;;
68300;SDS011;55146;47.468;18.806;2023-06-10T07:45:40;7.73;;;3.90;;
68300;SDS011;55146;47.468;18.806;2023-06-10T07:48:06;6.30;;;3.50;;
68300;SDS011;55146;47.468;18.806;2023-06-10T07:50:32;6.20;;;4.68;;
68300;SDS011;55146;47.468;18.806;2023-06-10T07:52:58;6.40;;;3.83;;
68300;SDS011;55146;47.468;18.806;2023-06-10T07:55:23;7.27;;;3.83;;
68300;SDS011;55146;47.468;18.806;2023-06-10T07:57:51;6.23;;;4.10;;
68300;SDS011;55146;47.468;18.806;2023-06-10T08:00:16;6.03;;;3.60;;
68300;SDS011;55146;47.468;18.806;2023-06-10T08:02:42;6.53;;;4.07;;
68300;SDS011;55146;47.468;18.806;2023-06-10T08:05:07;5.50;;;3.17;;
68300;SDS011;55146;47.468;18.806;2023-06-10T08:07:33;7.70;;;3.63;;
68300;SDS011;55146;47.468;18.806;2023-06-10T08:09:58;6.13;;;3.63;;
68300;SDS011;55146;47.468;18.806;2023-06-10T08:12:24;6.97;;;4.07;;
68300;SDS011;55146;47.468;18.806;2023-06-10T08:14:49;6.43;;;4.30;;
68300;SDS011;55146;47.468;18.806;2023-06-10T08:17:15;7.83;;;3.80;;
68300;SDS011;55146;47.468;18.806;2023-06-10T08:19:40;5.67;;;3.70;;
68300;SDS011;55146;47.468;18.806;2023-06-10T08:22:05;7.03;;;4.10;;
68300;SDS011;55146;47.468;18.806;2023-06-10T08:24:31;7.20;;;3.63;;
68300;SDS011;55146;47.468;18.806;2023-06-10T08:26:56;10.30;;;4.10;;
68300;SDS011;55146;47.468;18.806;2023-06-10T08:29:23;9.75;;;4.68;;
68300;SDS011;55146;47.468;18.806;2023-06-10T08:31:48;7.35;;;4.82;;
68300;SDS011;55146;47.468;18.806;2023-06-10T08:34:14;7.43;;;4.17;;
68300;SDS011;55146;47.468;18.806;2023-06-10T08:36:39;6.97;;;4.13;;
68300;SDS011;55146;47.468;18.806;2023-06-10T08:39:05;7.90;;;4.47;;
68300;SDS011;55146;47.468;18.806;2023-06-10T08:41:30;6.20;;;4.25;;
68300;SDS011;55146;47.468;18.806;2023-06-10T08:44:08;6.47;;;4.68;;
68300;SDS011;55146;47.468;18.806;2023-06-10T08:46:34;8.67;;;4.77;;
68300;SDS011;55146;47.468;18.806;2023-06-10T08:49:02;7.57;;;4.65;;
68300;SDS011;55146;47.468;18.806;2023-06-10T08:51:31;9.57;;;5.28;;
68300;SDS011;55146;47.468;18.806;2023-06-10T08:54:02;8.38;;;4.97;;
68300;SDS011;55146;47.468;18.806;2023-06-10T08:56:30;6.10;;;4.57;;
68300;SDS011;55146;47.468;18.806;2023-06-10T08:58:59;6.73;;;4.43;;
68300;SDS011;55146;47.468;18.806;2023-06-10T09:01:25;6.87;;;4.70;;
68300;SDS011;55146;47.468;18.806;2023-06-10T09:03:51;6.95;;;5.00;;
68300;SDS011;55146;47.468;18.806;2023-06-10T09:06:17;9.60;;;5.00;;
68300;SDS011;55146;47.468;18.806;2023-06-10T09:08:43;8.90;;;5.12;;
68300;SDS011;55146;47.468;18.806;2023-06-10T09:11:09;9.13;;;4.87;;
68300;SDS011;55146;47.468;18.806;2023-06-10T09:13:34;7.15;;;5.03;;
68300;SDS011;55146;47.468;18.806;2023-06-10T09:16:00;8.33;;;4.17;;
68300;SDS011;55146;47.468;18.806;2023-06-10T09:18:27;7.37;;;4.07;;
68300;SDS011;55146;47.468;18.806;2023-06-10T09:20:53;5.80;;;3.80;;
68300;SDS011;55146;47.468;18.806;2023-06-10T09:23:19;6.50;;;4.53;;
68300;SDS011;55146;47.468;18.806;2023-06-10T09:25:44;6.63;;;3.87;;
68300;SDS011;55146;47.468;18.806;2023-06-10T09:28:13;6.53;;;4.27;;
68300;SDS011;55146;47.468;18.806;2023-06-10T09:30:40;5.68;;;3.65;;
68300;SDS011;55146;47.468;18.806;2023-06-10T09:33:12;8.97;;;4.13;;
68300;SDS011;55146;47.468;18.806;2023-06-10T09:35:46;7.50;;;4.35;;
68300;SDS011;55146;47.468;18.806;2023-06-10T09:38:13;7.68;;;4.70;;
68300;SDS011;55146;47.468;18.806;2023-06-10T09:40:52;6.70;;;4.83;;
68300;SDS011;55146;47.468;18.806;2023-06-10T09:43:20;11.85;;;4.50;;
68300;SDS011;55146;47.468;18.806;2023-06-10T09:45:49;6.68;;;4.15;;
68300;SDS011;55146;47.468;18.806;2023-06-10T09:48:17;6.05;;;4.43;;
68300;SDS011;55146;47.468;18.806;2023-06-10T09:50:44;7.60;;;4.60;;
68300;SDS011;55146;47.468;18.806;2023-06-10T09:53:10;6.62;;;4.70;;
68300;SDS011;55146;47.468;18.806;2023-06-10T09:55:39;7.25;;;5.00;;
68300;SDS011;55146;47.468;18.806;2023-06-10T09:58:06;7.28;;;5.50;;
68300;SDS011;55146;47.468;18.806;2023-06-10T10:00:33;8.83;;;4.90;;
68300;SDS011;55146;47.468;18.806;2023-06-10T10:02:59;9.10;;;5.03;;
68300;SDS011;55146;47.468;18.806;2023-06-10T10:05:24;8.13;;;4.85;;
68300;SDS011;55146;47.468;18.806;2023-06-10T10:07:50;8.33;;;5.13;;
68300;SDS011;55146;47.468;18.806;2023-06-10T10:10:18;7.60;;;5.85;;
68300;SDS011;55146;47.468;18.806;2023-06-10T10:12:46;6.70;;;4.87;;
68300;SDS011;55146;47.468;18.806;2023-06-10T10:15:12;7.17;;;5.30;;
68300;SDS011;55146;47.468;18.806;2023-06-10T10:17:38;8.13;;;5.12;;
68300;SDS011;55146;47.468;18.806;2023-06-10T10:20:08;7.05;;;5.22;;
68300;SDS011;55146;47.468;18.806;2023-06-10T10:22:38;6.60;;;4.93;;
68300;SDS011;55146;47.468;18.806;2023-06-10T10:25:05;7.65;;;5.20;;
68300;SDS011;55146;47.468;18.806;2023-06-10T10:27:36;7.90;;;5.80;;
68300;SDS011;55146;47.468;18.806;2023-06-10T10:30:09;6.60;;;4.90;;
68300;SDS011;55146;47.468;18.806;2023-06-10T10:37:40;6.18;;;5.12;;
68300;SDS011;55146;47.468;18.806;2023-06-10T10:40:06;6.93;;;4.87;;
68300;SDS011;55146;47.468;18.806;2023-06-10T10:42:33;8.77;;;5.45;;
68300;SDS011;55146;47.468;18.806;2023-06-10T10:45:00;6.53;;;4.68;;
68300;SDS011;55146;47.468;18.806;2023-06-10T10:47:27;6.07;;;4.30;;
68300;SDS011;55146;47.468;18.806;2023-06-10T10:49:55;6.12;;;4.22;;
68300;SDS011;55146;47.468;18.806;2023-06-10T10:52:24;8.77;;;4.80;;
68300;SDS011;55146;47.468;18.806;2023-06-10T10:54:50;6.57;;;4.37;;
68300;SDS011;55146;47.468;18.806;2023-06-10T10:57:19;7.53;;;4.50;;
68300;SDS011;55146;47.468;18.806;2023-06-10T11:04:46;7.00;;;4.00;;
68300;SDS011;55146;47.468;18.806;2023-06-10T11:07:13;6.53;;;4.30;;
68300;SDS011;55146;47.468;18.806;2023-06-10T11:09:57;6.10;;;4.90;;
68300;SDS011;55146;47.468;18.806;2023-06-10T11:12:40;7.72;;;4.65;;
68300;SDS011;55146;47.468;18.806;2023-06-10T11:15:05;6.05;;;3.92;;
68300;SDS011;55146;47.468;18.806;2023-06-10T11:17:31;7.37;;;4.20;;
68300;SDS011;55146;47.468;18.806;2023-06-10T11:19:56;7.73;;;4.73;;
68300;SDS011;55146;47.468;18.806;2023-06-10T11:22:23;5.78;;;3.87;;
68300;SDS011;55146;47.468;18.806;2023-06-10T11:24:52;5.37;;;3.93;;
68300;SDS011;55146;47.468;18.806;2023-06-10T11:32:31;7.00;;;5.07;;
68300;SDS011;55146;47.468;18.806;2023-06-10T11:34:58;5.72;;;4.40;;
68300;SDS011;55146;47.468;18.806;2023-06-10T11:37:24;5.63;;;3.80;;
68300;SDS011;55146;47.468;18.806;2023-06-10T11:39:53;6.22;;;4.22;;
68300;SDS011;55146;47.468;18.806;2023-06-10T11:42:19;7.00;;;4.55;;
68300;SDS011;55146;47.468;18.806;2023-06-10T11:44:49;5.90;;;3.90;;
68300;SDS011;55146;47.468;18.806;2023-06-10T11:47:16;9.43;;;7.85;;
68300;SDS011;55146;47.468;18.806;2023-06-10T11:49:41;10.60;;;8.18;;
68300;SDS011;55146;47.468;18.806;2023-06-10T11:52:07;12.50;;;6.77;;
68300;SDS011;55146;47.468;18.806;2023-06-10T11:54:33;8.05;;;6.32;;
68300;SDS011;55146;47.468;18.806;2023-06-10T11:56:58;9.30;;;5.97;;
68300;SDS011;55146;47.468;18.806;2023-06-10T11:59:28;6.20;;;4.10;;
68300;SDS011;55146;47.468;18.806;2023-06-10T12:01:54;7.37;;;4.03;;
68300;SDS011;55146;47.468;18.806;2023-06-10T12:04:20;6.78;;;4.95;;
68300;SDS011;55146;47.468;18.806;2023-06-10T12:06:50;6.55;;;4.65;;
68300;SDS011;55146;47.468;18.806;2023-06-10T12:09:26;5.85;;;4.50;;
68300;SDS011;55146;47.468;18.806;2023-06-10T12:12:05;6.40;;;4.70;;
68300;SDS011;55146;47.468;18.806;2023-06-10T12:17:24;6.43;;;4.50;;
68300;SDS011;55146;47.468;18.806;2023-06-10T12:20:02;6.12;;;4.35;;
68300;SDS011;55146;47.468;18.806;2023-06-10T12:22:39;5.90;;;4.55;;
68300;SDS011;55146;47.468;18.806;2023-06-10T12:25:06;7.35;;;4.97;;
68300;SDS011;55146;47.468;18.806;2023-06-10T12:27:33;5.83;;;4.20;;
68300;SDS011;55146;47.468;18.806;2023-06-10T12:29:59;7.03;;;4.90;;
68300;SDS011;55146;47.468;18.806;2023-06-10T12:32:38;7.78;;;5.25;;
68300;SDS011;55146;47.468;18.806;2023-06-10T12:35:05;6.12;;;4.45;;
68300;SDS011;55146;47.468;18.806;2023-06-10T12:37:32;7.90;;;5.18;;
68300;SDS011;55146;47.468;18.806;2023-06-10T12:40:03;6.60;;;4.80;;
68300;SDS011;55146;47.468;18.806;2023-06-10T12:42:30;6.22;;;5.05;;
68300;SDS011;55146;47.468;18.806;2023-06-10T12:44:58;6.20;;;4.85;;
68300;SDS011;55146;47.468;18.806;2023-06-10T12:47:35;6.35;;;4.60;;
68300;SDS011;55146;47.468;18.806;2023-06-10T12:50:03;7.87;;;4.70;;
68300;SDS011;55146;47.468;18.806;2023-06-10T12:52:29;5.67;;;4.13;;
68300;SDS011;55146;47.468;18.806;2023-06-10T12:54:55;6.72;;;4.65;;
68300;SDS011;55146;47.468;18.806;2023-06-10T12:57:21;5.60;;;4.30;;
68300;SDS011;55146;47.468;18.806;2023-06-10T12:59:47;7.45;;;4.32;;
68300;SDS011;55146;47.468;18.806;2023-06-10T13:02:17;6.70;;;4.68;;
68300;SDS011;55146;47.468;18.806;2023-06-10T13:04:43;6.57;;;4.83;;
68300;SDS011;55146;47.468;18.806;2023-06-10T13:07:09;7.25;;;4.37;;
68300;SDS011;55146;47.468;18.806;2023-06-10T13:09:35;6.30;;;4.45;;
68300;SDS011;55146;47.468;18.806;2023-06-10T13:12:02;8.68;;;4.80;;
68300;SDS011;55146;47.468;18.806;2023-06-10T13:14:27;8.23;;;4.63;;
68300;SDS011;55146;47.468;18.806;2023-06-10T13:16:53;5.97;;;4.63;;
68300;SDS011;55146;47.468;18.806;2023-06-10T13:19:20;6.80;;;4.30;;
68300;SDS011;55146;47.468;18.806;2023-06-10T13:21:46;6.90;;;5.53;;
68300;SDS011;55146;47.468;18.806;2023-06-10T13:24:12;6.28;;;4.62;;
68300;SDS011;55146;47.468;18.806;2023-06-10T13:26:37;7.47;;;4.10;;
68300;SDS011;55146;47.468;18.806;2023-06-10T13:29:03;6.83;;;4.63;;
68300;SDS011;55146;47.468;18.806;2023-06-10T13:31:29;6.10;;;4.72;;
68300;SDS011;55146;47.468;18.806;2023-06-10T13:33:54;5.83;;;4.50;;
68300;SDS011;55146;47.468;18.806;2023-06-10T13:36:20;6.03;;;4.17;;
68300;SDS011;55146;47.468;18.806;2023-06-10T13:38:45;6.20;;;4.30;;
68300;SDS011;55146;47.468;18.806;2023-06-10T13:41:12;6.10;;;4.60;;
68300;SDS011;55146;47.468;18.806;2023-06-10T13:43:37;6.07;;;4.00;;
68300;SDS011;55146;47.468;18.806;2023-06-10T13:46:03;5.23;;;4.10;;
68300;SDS011;55146;47.468;18.806;2023-06-10T13:48:28;5.70;;;4.17;;
68300;SDS011;55146;47.468;18.806;2023-06-10T13:50:54;5.60;;;3.87;;
68300;SDS011;55146;47.468;18.806;2023-06-10T13:53:19;5.90;;;4.70;;
68300;SDS011;55146;47.468;18.806;2023-06-10T13:55:44;5.32;;;3.80;;
68300;SDS011;55146;47.468;18.806;2023-06-10T13:58:10;6.53;;;4.13;;
68300;SDS011;55146;47.468;18.806;2023-06-10T14:00:35;5.00;;;3.70;;
68300;SDS011;55146;47.468;18.806;2023-06-10T14:03:01;5.50;;;3.57;;
68300;SDS011;55146;47.468;18.806;2023-06-10T14:05:28;6.25;;;3.70;;
68300;SDS011;55146;47.468;18.806;2023-06-10T14:07:53;7.63;;;3.30;;
68300;SDS011;55146;47.468;18.806;2023-06-10T14:10:18;5.47;;;3.93;;
68300;SDS011;55146;47.468;18.806;2023-06-10T14:12:44;7.70;;;4.18;;
68300;SDS011;55146;47.468;18.806;2023-06-10T14:15:09;5.67;;;3.70;;
68300;SDS011;55146;47.468;18.806;2023-06-10T14:17:35;5.93;;;4.33;;
68300;SDS011;55146;47.468;18.806;2023-06-10T14:20:00;5.82;;;4.10;;
68300;SDS011;55146;47.468;18.806;2023-06-10T14:22:26;4.87;;;2.67;;
68300;SDS011;55146;47.468;18.806;2023-06-10T14:24:51;4.87;;;3.50;;
68300;SDS011;55146;47.468;18.806;2023-06-10T14:27:16;4.93;;;3.60;;
68300;SDS011;55146;47.468;18.806;2023-06-10T14:29:42;5.60;;;3.77;;
68300;SDS011;55146;47.468;18.806;2023-06-10T14:32:07;6.37;;;3.17;;
68300;SDS011;55146;47.468;18.806;2023-06-10T14:34:32;5.40;;;4.47;;
68300;SDS011;55146;47.468;18.806;2023-06-10T14:36:59;7.60;;;3.83;;
68300;SDS011;55146;47.468;18.806;2023-06-10T14:39:25;5.25;;;4.18;;
68300;SDS011;55146;47.468;18.806;2023-06-10T14:41:50;6.90;;;3.87;;
68300;SDS011;55146;47.468;18.806;2023-06-10T14:44:17;6.22;;;4.10;;
68300;SDS011;55146;47.468;18.806;2023-06-10T14:46:43;6.53;;;5.12;;
68300;SDS011;55146;47.468;18.806;2023-06-10T14:49:08;7.27;;;4.30;;